createdAt,value
2022-08-14T00:08:59.691Z,16
2022-08-14T00:19:05.907Z,16
2022-08-14T00:29:15.925Z,16
2022-08-14T00:39:18.846Z,15
2022-08-14T00:49:21.364Z,15
2022-08-14T00:59:19.267Z,15
2022-08-14T01:09:20.317Z,15
2022-08-14T01:19:20.344Z,14
2022-08-14T01:29:32.765Z,16
2022-08-14T01:39:39.168Z,16
2022-08-14T01:49:46.337Z,15
2022-08-14T01:59:58.194Z,14
2022-08-14T02:09:58.639Z,14
2022-08-14T02:19:59.365Z,13
2022-08-14T02:30:03.042Z,13
2022-08-14T02:40:05.780Z,13
2022-08-14T02:50:06.402Z,13
2022-08-14T03:00:10.535Z,16
2022-08-14T03:10:27.269Z,16
2022-08-14T03:20:26.412Z,13
2022-08-14T03:30:37.235Z,13
2022-08-14T03:40:46.830Z,13
2022-08-14T03:50:48.065Z,13
2022-08-14T04:00:47.359Z,13
2022-08-14T04:10:47.959Z,13
2022-08-14T04:20:55.822Z,13
2022-08-14T04:30:59.419Z,13
2022-08-14T04:40:56.214Z,13
2022-08-14T04:50:56.723Z,13
2022-08-14T05:00:58.203Z,13
2022-08-14T05:10:58.744Z,14
2022-08-14T05:21:58.622Z,13
2022-08-14T05:31:21.537Z,13
2022-08-14T05:41:22.056Z,13
2022-08-14T05:51:22.259Z,13
2022-08-14T06:01:23.869Z,13
2022-08-14T06:11:31.395Z,13
2022-08-14T06:21:33.091Z,13
2022-08-14T06:31:32.993Z,13
2022-08-14T06:41:57.303Z,13
2022-08-14T06:51:54.117Z,13
2022-08-14T07:01:56.968Z,13
2022-08-14T07:11:58.152Z,13
2022-08-14T07:21:58.421Z,14
2022-08-14T07:32:00.053Z,13
2022-08-14T07:42:02.155Z,14
2022-08-14T07:52:03.857Z,14
2022-08-14T08:02:06.028Z,14
2022-08-14T08:12:20.135Z,13
2022-08-14T08:22:21.427Z,13
2022-08-14T08:32:29.791Z,13
2022-08-14T08:42:45.046Z,14
2022-08-14T08:52:51.270Z,14
2022-08-14T09:02:53.499Z,11
2022-08-14T09:12:55.152Z,13
2022-08-14T09:22:56.981Z,11
2022-08-14T09:33:00.432Z,11
2022-08-14T09:43:00.985Z,10
2022-08-14T09:53:04.433Z,10
2022-08-14T10:03:06.133Z,10
2022-08-14T10:13:07.565Z,13
2022-08-14T10:23:22.398Z,10
2022-08-14T10:33:24.541Z,7
2022-08-14T10:43:26.331Z,8
2022-08-14T10:53:28.335Z,6
2022-08-14T11:03:36.070Z,6
2022-08-14T11:13:50.002Z,6
2022-08-14T11:23:57.106Z,6
2022-08-14T11:33:56.591Z,7
2022-08-14T11:43:59.115Z,6
2022-08-14T11:54:00.477Z,6
2022-08-14T12:04:07.608Z,5
2022-08-14T12:14:29.066Z,5
2022-08-14T12:24:41.113Z,5
2022-08-14T12:34:44.994Z,4
2022-08-14T12:44:43.670Z,4
2022-08-14T12:54:56.107Z,4
2022-08-14T13:05:07.919Z,5
2022-08-14T13:15:09.753Z,6
2022-08-14T13:25:09.803Z,6
2022-08-14T13:35:16.601Z,5
2022-08-14T13:45:17.279Z,6
2022-08-14T13:55:19.999Z,8
2022-08-14T14:05:23.605Z,6
2022-08-14T14:15:33.947Z,7
2022-08-14T14:25:57.219Z,6
2022-08-14T14:36:05.385Z,8
2022-08-14T14:46:09.656Z,11
2022-08-14T14:56:48.520Z,13
2022-08-14T15:06:44.310Z,14
2022-08-14T15:16:51.759Z,13
2022-08-14T15:26:52.061Z,13
2022-08-14T15:36:51.947Z,11
2022-08-14T15:46:53.079Z,10
2022-08-14T15:56:58.545Z,12
2022-08-14T16:06:56.664Z,10
2022-08-14T16:17:02.517Z,13
2022-08-14T16:27:10.834Z,11
2022-08-14T16:37:13.614Z,12
2022-08-14T16:47:14.778Z,16
2022-08-14T16:57:16.450Z,12
2022-08-14T17:07:15.565Z,10
2022-08-14T17:17:16.686Z,10
2022-08-14T17:27:18.864Z,11
2022-08-14T17:37:22.991Z,12
2022-08-14T17:47:22.425Z,11
2022-08-14T17:57:23.355Z,11
2022-08-14T18:07:50.853Z,11
2022-08-14T18:17:43.078Z,12
2022-08-14T18:27:45.919Z,12
2022-08-14T18:37:55.622Z,11
2022-08-14T18:48:14.933Z,11
2022-08-14T18:58:28.135Z,13
2022-08-14T19:08:37.886Z,12
2022-08-14T19:18:38.927Z,10
2022-08-14T19:28:42.229Z,11
2022-08-14T19:38:40.840Z,12
2022-08-14T19:48:46.862Z,14
2022-08-14T19:59:00.567Z,14
2022-08-14T20:11:01.665Z,14
2022-08-14T20:19:20.317Z,14
2022-08-14T20:29:24.008Z,13
2022-08-14T20:39:23.645Z,13
2022-08-14T20:49:36.831Z,12
2022-08-14T20:59:43.352Z,13
2022-08-14T21:10:05.894Z,13
2022-08-14T21:19:59.522Z,12
2022-08-14T21:30:20.963Z,13
2022-08-14T21:40:41.255Z,13
2022-08-14T21:50:56.583Z,12
2022-08-14T22:01:02.089Z,12
2022-08-14T22:11:04.359Z,12
2022-08-14T22:21:16.627Z,12
2022-08-14T22:31:23.477Z,12
2022-08-14T22:41:31.381Z,12
2022-08-14T22:51:48.448Z,11
2022-08-14T23:01:55.971Z,12
2022-08-14T23:12:03.017Z,11
2022-08-14T23:22:03.983Z,13
2022-08-14T23:32:15.499Z,11
2022-08-14T23:42:39.667Z,12
2022-08-14T23:52:51.810Z,13
